createdAt,value
2022-08-24T00:00:31.834Z,12.00
2022-08-24T00:02:58.716Z,15.02
2022-08-24T00:05:25.551Z,13.05
2022-08-24T00:07:52.321Z,12.35
2022-08-24T00:10:22.502Z,11.82
2022-08-24T00:12:50.000Z,14.55
2022-08-24T00:15:17.565Z,14.57
2022-08-24T00:17:44.829Z,12.32
2022-08-24T00:20:12.658Z,13.30
2022-08-24T00:22:40.935Z,13.60
2022-08-24T00:25:09.272Z,12.90
2022-08-24T00:27:37.010Z,11.18
2022-08-24T00:30:07.297Z,11.10
2022-08-24T00:32:34.091Z,11.35
2022-08-24T00:35:00.755Z,13.60
2022-08-24T00:37:28.806Z,12.27
2022-08-24T00:39:56.282Z,11.98
2022-08-24T00:42:24.006Z,11.90
2022-08-24T00:44:51.871Z,15.52
2022-08-24T00:47:24.269Z,11.95
2022-08-24T00:49:59.615Z,11.50
2022-08-24T00:52:43.742Z,12.48
2022-08-24T00:55:15.686Z,11.48
2022-08-24T00:57:46.578Z,11.50
2022-08-24T01:00:24.398Z,11.05
2022-08-24T01:03:04.231Z,13.27
2022-08-24T01:05:32.147Z,12.05
2022-08-24T01:08:00.563Z,12.18
2022-08-24T01:10:31.070Z,10.27
2022-08-24T01:13:01.689Z,12.70
2022-08-24T01:15:30.266Z,10.98
2022-08-24T01:18:16.438Z,12.18
2022-08-24T01:20:47.474Z,9.32
2022-08-24T01:23:43.912Z,11.85
2022-08-24T01:26:15.088Z,10.65
2022-08-24T01:28:45.702Z,9.80
2022-08-24T01:31:12.749Z,9.93
2022-08-24T01:33:39.554Z,10.32
2022-08-24T01:36:39.296Z,8.70
2022-08-24T01:39:28.516Z,9.10
2022-08-24T01:41:56.419Z,9.38
2022-08-24T01:44:25.768Z,10.52
2022-08-24T01:46:55.100Z,10.55
2022-08-24T01:49:26.127Z,8.90
2022-08-24T01:51:53.260Z,10.18
2022-08-24T01:54:20.860Z,10.88
2022-08-24T01:56:47.582Z,9.98
2022-08-24T01:59:15.746Z,9.73
2022-08-24T02:01:49.305Z,13.75
2022-08-24T02:04:17.718Z,12.45
2022-08-24T02:06:47.031Z,12.23
2022-08-24T02:09:16.053Z,11.43
2022-08-24T02:11:43.416Z,9.30
2022-08-24T02:14:13.528Z,12.25
2022-08-24T02:16:42.074Z,10.80
2022-08-24T02:19:08.769Z,10.75
2022-08-24T02:21:35.720Z,10.77
2022-08-24T02:24:02.479Z,12.35
2022-08-24T02:26:31.757Z,10.30
2022-08-24T02:29:03.544Z,12.05
2022-08-24T02:31:33.456Z,12.30
2022-08-24T02:34:00.698Z,10.00
2022-08-24T02:36:27.569Z,11.98
2022-08-24T02:38:58.020Z,15.77
2022-08-24T02:41:25.887Z,13.23
2022-08-24T02:43:55.950Z,13.07
2022-08-24T02:46:26.132Z,13.95
2022-08-24T02:49:10.441Z,13.43
2022-08-24T02:51:42.217Z,10.63
2022-08-24T02:54:17.268Z,14.60
2022-08-24T02:56:44.502Z,10.90
2022-08-24T02:59:11.569Z,11.60
2022-08-24T03:01:38.450Z,13.63
2022-08-24T03:04:05.552Z,13.68
2022-08-24T03:06:32.655Z,12.48
2022-08-24T03:08:59.376Z,14.02
2022-08-24T03:11:28.237Z,10.13
2022-08-24T03:13:56.815Z,12.93
2022-08-24T03:16:23.581Z,13.93
2022-08-24T03:18:51.520Z,16.52
2022-08-24T03:21:18.339Z,10.27
2022-08-24T03:23:45.199Z,13.90
2022-08-24T03:26:12.719Z,11.50
2022-08-24T03:28:40.520Z,13.25
2022-08-24T03:31:07.801Z,11.45
2022-08-24T03:33:35.061Z,12.95
2022-08-24T03:36:03.066Z,14.05
2022-08-24T03:38:30.048Z,12.73
2022-08-24T03:40:57.155Z,15.27
2022-08-24T03:43:42.446Z,16.30
2022-08-24T03:46:09.526Z,15.00
2022-08-24T03:48:44.221Z,11.60
2022-08-24T03:51:13.245Z,12.80
2022-08-24T03:53:42.906Z,10.70
2022-08-24T03:56:11.291Z,11.45
2022-08-24T03:58:39.599Z,13.43
2022-08-24T04:01:06.815Z,10.38
2022-08-24T04:03:43.398Z,11.07
2022-08-24T04:06:13.038Z,13.13
2022-08-24T04:08:41.496Z,10.43
2022-08-24T04:11:13.350Z,11.63
2022-08-24T04:13:40.579Z,14.18
2022-08-24T04:16:09.265Z,13.00
2022-08-24T04:18:36.492Z,15.90
2022-08-24T04:21:04.132Z,13.43
2022-08-24T04:23:46.485Z,10.95
2022-08-24T04:26:15.433Z,11.95
2022-08-24T04:28:42.425Z,10.27
2022-08-24T04:31:09.391Z,10.23
2022-08-24T04:33:41.975Z,12.43
2022-08-24T04:36:09.959Z,11.32
2022-08-24T04:38:40.770Z,11.07
2022-08-24T04:41:30.992Z,10.63
2022-08-24T04:43:59.881Z,7.97
2022-08-24T04:46:27.322Z,9.70
2022-08-24T04:48:55.305Z,7.93
2022-08-24T04:51:22.600Z,7.45
2022-08-24T04:53:50.544Z,8.07
2022-08-24T04:56:23.043Z,8.50
2022-08-24T04:58:52.199Z,7.43
2022-08-24T05:01:22.108Z,7.15
2022-08-24T05:03:50.898Z,6.40
2022-08-24T05:06:20.426Z,9.33
2022-08-24T05:08:47.887Z,10.35
2022-08-24T05:11:17.355Z,6.80
2022-08-24T05:13:45.653Z,6.53
2022-08-24T05:16:15.979Z,6.90
2022-08-24T05:18:43.799Z,7.27
2022-08-24T05:21:12.719Z,7.47
2022-08-24T05:23:43.390Z,8.02
2022-08-24T05:26:19.277Z,12.15
2022-08-24T05:28:47.500Z,7.55
2022-08-24T05:31:20.446Z,9.07
2022-08-24T05:33:48.151Z,10.35
2022-08-24T05:36:19.882Z,8.77
2022-08-24T05:38:47.876Z,9.45
2022-08-24T05:41:16.237Z,7.85
2022-08-24T05:43:45.363Z,13.87
2022-08-24T05:46:12.825Z,15.48
2022-08-24T05:48:40.006Z,15.00
2022-08-24T05:51:21.576Z,14.52
2022-08-24T05:53:57.546Z,10.55
2022-08-24T05:56:31.912Z,11.33
2022-08-24T05:59:00.638Z,12.48
2022-08-24T06:01:28.278Z,10.25
2022-08-24T06:03:57.322Z,14.07
2022-08-24T06:06:24.447Z,14.63
2022-08-24T06:08:55.127Z,16.70
2022-08-24T06:11:24.651Z,19.05
2022-08-24T06:14:00.919Z,15.70
2022-08-24T06:16:30.657Z,16.83
2022-08-24T06:18:57.727Z,17.25
2022-08-24T06:21:28.438Z,24.43
2022-08-24T06:23:57.356Z,18.23
2022-08-24T06:26:43.004Z,14.57
2022-08-24T06:29:11.903Z,20.60
2022-08-24T06:31:46.649Z,24.10
2022-08-24T06:34:15.942Z,25.13
2022-08-24T06:36:43.115Z,22.48
2022-08-24T06:39:10.977Z,24.10
2022-08-24T06:41:42.826Z,25.58
2022-08-24T06:44:11.365Z,22.15
2022-08-24T06:46:49.850Z,26.67
2022-08-24T06:49:18.147Z,28.13
2022-08-24T06:51:48.723Z,26.38
2022-08-24T06:54:19.155Z,28.30
2022-08-24T06:56:46.604Z,24.40
2022-08-24T06:59:13.391Z,21.50
2022-08-24T07:01:41.589Z,23.83
2022-08-24T07:04:08.580Z,29.52
2022-08-24T07:07:10.717Z,21.85
2022-08-24T07:09:38.136Z,26.77
2022-08-24T07:12:05.539Z,26.17
2022-08-24T07:14:32.793Z,28.98
2022-08-24T07:17:01.746Z,25.25
2022-08-24T07:19:30.256Z,26.08
2022-08-24T07:21:58.203Z,27.25
2022-08-24T07:24:26.934Z,27.15
2022-08-24T07:26:54.509Z,29.27
2022-08-24T07:29:50.377Z,36.25
2022-08-24T07:32:10.113Z,25.58
2022-08-24T07:34:39.865Z,28.92
2022-08-24T07:37:07.787Z,31.45
2022-08-24T07:39:36.759Z,25.20
2022-08-24T07:42:27.116Z,26.98
2022-08-24T07:44:51.730Z,27.38
2022-08-24T07:47:37.539Z,26.13
2022-08-24T07:50:13.383Z,31.48
2022-08-24T07:52:40.653Z,32.78
2022-08-24T07:55:07.776Z,31.58
2022-08-24T07:57:35.470Z,29.77
2022-08-24T08:00:06.789Z,28.55
2022-08-24T08:02:45.317Z,22.00
2022-08-24T08:05:16.491Z,29.42
2022-08-24T08:07:51.508Z,25.73
2022-08-24T08:10:19.858Z,29.33
2022-08-24T08:12:46.574Z,27.63
2022-08-24T08:15:13.247Z,26.02
2022-08-24T08:17:47.603Z,29.00
2022-08-24T08:20:22.259Z,27.77
2022-08-24T08:23:07.723Z,25.52
2022-08-24T08:26:04.591Z,23.67
2022-08-24T08:28:54.032Z,21.67
2022-08-24T08:31:21.499Z,23.98
2022-08-24T08:33:48.815Z,23.63
2022-08-24T08:36:15.911Z,23.50
2022-08-24T08:38:49.122Z,21.05
2022-08-24T08:41:17.729Z,21.27
2022-08-24T08:44:38.530Z,16.40
2022-08-24T08:47:08.283Z,23.85
2022-08-24T08:49:55.674Z,19.52
2022-08-24T08:52:33.248Z,19.25
2022-08-24T08:55:32.522Z,14.20
2022-08-24T08:58:25.279Z,16.63
2022-08-24T09:01:18.419Z,16.55
2022-08-24T09:04:06.309Z,17.02
2022-08-24T09:07:28.663Z,15.82
2022-08-24T09:10:31.086Z,14.20
2022-08-24T09:13:27.153Z,16.15
2022-08-24T09:16:38.168Z,13.93
2022-08-24T09:19:36.720Z,10.93
2022-08-24T09:22:14.991Z,9.25
2022-08-24T09:24:54.370Z,8.30
2022-08-24T09:28:11.991Z,14.60
2022-08-24T09:31:07.920Z,8.70
2022-08-24T09:34:09.005Z,8.00
2022-08-24T09:36:59.055Z,6.65
2022-08-24T09:39:37.904Z,5.97
2022-08-24T09:42:42.264Z,7.90
2022-08-24T09:45:11.681Z,6.03
2022-08-24T09:48:04.306Z,6.65
2022-08-24T09:51:01.998Z,5.07
2022-08-24T09:53:31.484Z,7.07
2022-08-24T09:56:14.244Z,5.05
2022-08-24T09:59:22.471Z,5.30
2022-08-24T10:02:32.141Z,3.95
2022-08-24T10:05:19.324Z,5.35
2022-08-24T10:08:13.731Z,4.30
2022-08-24T10:11:09.084Z,3.92
2022-08-24T10:13:55.323Z,5.05
2022-08-24T10:16:41.225Z,5.72
2022-08-24T10:19:27.202Z,3.60
2022-08-24T10:22:14.139Z,5.47
2022-08-24T10:25:08.878Z,6.43
2022-08-24T10:28:07.108Z,3.92
2022-08-24T10:30:46.040Z,5.93
2022-08-24T10:33:44.778Z,6.53
2022-08-24T10:36:14.267Z,3.85
2022-08-24T10:39:27.587Z,5.28
2022-08-24T10:42:39.114Z,4.88
2022-08-24T10:45:24.825Z,3.33
2022-08-24T10:48:03.944Z,5.30
2022-08-24T10:50:51.074Z,5.35
2022-08-24T10:53:21.132Z,4.88
2022-08-24T10:55:59.946Z,5.47
2022-08-24T10:58:43.587Z,3.05
2022-08-24T11:01:24.705Z,3.63
2022-08-24T11:03:59.563Z,4.05
2022-08-24T11:06:30.801Z,3.00
2022-08-24T11:08:59.435Z,4.88
2022-08-24T11:11:30.364Z,5.03
2022-08-24T11:14:04.591Z,3.80
2022-08-24T11:16:45.899Z,5.65
2022-08-24T11:19:32.920Z,4.80
2022-08-24T11:22:25.658Z,2.70
2022-08-24T11:24:57.256Z,4.22
2022-08-24T11:27:46.359Z,4.38
2022-08-24T11:30:22.071Z,5.53
2022-08-24T11:32:56.643Z,3.10
2022-08-24T11:35:32.379Z,2.78
2022-08-24T11:38:18.650Z,4.00
2022-08-24T11:41:30.394Z,3.35
2022-08-24T11:44:32.957Z,3.97
2022-08-24T11:47:34.117Z,4.07
2022-08-24T11:50:22.899Z,3.45
2022-08-24T11:53:22.730Z,3.85
2022-08-24T11:56:10.947Z,3.67
2022-08-24T11:59:04.514Z,2.85
2022-08-24T12:01:46.545Z,2.20
2022-08-24T12:04:25.909Z,4.38
2022-08-24T12:07:14.842Z,2.20
2022-08-24T12:09:53.006Z,4.15
2022-08-24T12:12:27.425Z,3.00
2022-08-24T12:15:00.481Z,5.73
2022-08-24T12:17:46.734Z,2.58
2022-08-24T12:20:33.119Z,4.90
2022-08-24T12:23:08.699Z,4.95
2022-08-24T12:25:54.343Z,2.33
2022-08-24T12:28:32.618Z,3.17
2022-08-24T12:31:09.607Z,2.40
2022-08-24T12:33:39.538Z,4.70
2022-08-24T12:36:18.262Z,2.70
2022-08-24T12:38:51.587Z,2.92
2022-08-24T12:41:30.634Z,2.47
2022-08-24T12:44:16.755Z,3.13
2022-08-24T12:46:44.570Z,2.90
2022-08-24T12:49:45.682Z,3.92
2022-08-24T12:52:20.819Z,5.47
2022-08-24T12:54:57.697Z,2.60
2022-08-24T12:58:31.015Z,2.10
2022-08-24T13:00:52.773Z,4.53
2022-08-24T13:03:37.539Z,2.47
2022-08-24T13:06:27.096Z,3.00
2022-08-24T13:09:15.028Z,3.37
2022-08-24T13:11:42.270Z,3.58
2022-08-24T13:14:12.511Z,5.78
2022-08-24T13:17:09.867Z,4.65
2022-08-24T13:19:43.372Z,2.75
2022-08-24T13:22:09.961Z,5.10
2022-08-24T13:24:38.443Z,3.55
2022-08-24T13:27:14.214Z,2.35
2022-08-24T13:29:49.802Z,3.28
2022-08-24T13:32:22.571Z,2.83
2022-08-24T13:34:51.501Z,2.20
2022-08-24T13:37:22.673Z,4.20
2022-08-24T13:40:02.237Z,5.15
2022-08-24T13:43:02.945Z,5.05
2022-08-24T13:45:37.419Z,2.95
2022-08-24T13:48:07.198Z,4.17
2022-08-24T13:50:37.828Z,3.88
2022-08-24T13:53:10.318Z,2.65
2022-08-24T13:56:15.473Z,3.58
2022-08-24T13:59:02.299Z,2.75
2022-08-24T14:01:33.955Z,2.73
2022-08-24T14:04:25.769Z,4.72
2022-08-24T14:07:13.214Z,3.13
2022-08-24T14:10:07.130Z,3.97
2022-08-24T14:12:41.801Z,3.20
2022-08-24T14:15:33.039Z,3.23
2022-08-24T14:18:09.554Z,2.42
2022-08-24T14:21:01.755Z,3.60
2022-08-24T14:23:59.690Z,2.67
2022-08-24T14:26:36.828Z,3.17
2022-08-24T14:29:15.394Z,6.00
2022-08-24T14:32:12.494Z,3.90
2022-08-24T14:34:55.282Z,4.35
2022-08-24T14:37:40.050Z,4.72
2022-08-24T14:40:21.179Z,4.70
2022-08-24T14:42:58.954Z,2.60
2022-08-24T14:45:44.479Z,4.80
2022-08-24T14:48:48.511Z,2.88
2022-08-24T14:51:44.361Z,5.55
2022-08-24T14:54:35.654Z,3.70
2022-08-24T14:57:21.735Z,3.97
2022-08-24T15:00:12.787Z,3.95
2022-08-24T15:03:19.480Z,3.08
2022-08-24T15:06:25.160Z,8.15
2022-08-24T15:08:49.746Z,4.05
2022-08-24T15:11:22.056Z,3.37
2022-08-24T15:13:58.830Z,3.63
2022-08-24T15:16:53.599Z,3.65
2022-08-24T15:19:27.009Z,3.42
2022-08-24T15:22:13.636Z,4.28
2022-08-24T15:24:57.271Z,3.40
2022-08-24T15:28:08.984Z,3.85
2022-08-24T15:30:40.137Z,7.60
2022-08-24T15:33:20.286Z,3.78
2022-08-24T15:36:03.137Z,3.00
2022-08-24T15:38:29.766Z,6.17
2022-08-24T15:41:29.341Z,16.75
2022-08-24T15:43:55.961Z,3.13
2022-08-24T15:46:31.902Z,6.00
2022-08-24T15:49:06.102Z,7.15
2022-08-24T15:51:48.207Z,2.93
2022-08-24T15:54:25.009Z,5.43
2022-08-24T15:57:09.955Z,3.95
2022-08-24T15:59:39.731Z,3.72
2022-08-24T16:02:27.685Z,5.22
2022-08-24T16:05:21.382Z,5.20
2022-08-24T16:07:58.727Z,2.45
2022-08-24T16:10:42.707Z,5.30
2022-08-24T16:13:19.493Z,4.32
2022-08-24T16:15:51.727Z,3.97
2022-08-24T16:18:20.315Z,4.63
2022-08-24T16:20:48.909Z,5.32
2022-08-24T16:23:25.944Z,5.05
2022-08-24T16:26:27.008Z,5.57
2022-08-24T16:28:55.055Z,2.83
2022-08-24T16:31:40.658Z,5.90
2022-08-24T16:34:23.780Z,5.30
2022-08-24T16:36:50.450Z,4.50
2022-08-24T16:39:17.097Z,4.38
2022-08-24T16:41:44.246Z,5.25
2022-08-24T16:44:11.757Z,4.87
2022-08-24T16:46:39.738Z,5.30
2022-08-24T16:49:10.726Z,4.78
2022-08-24T16:51:45.170Z,3.45
2022-08-24T16:54:13.071Z,3.90
2022-08-24T16:56:39.913Z,4.00
2022-08-24T16:59:06.855Z,4.15
2022-08-24T17:01:33.745Z,5.80
2022-08-24T17:04:00.461Z,5.25
2022-08-24T17:06:27.249Z,3.75
2022-08-24T17:08:54.035Z,5.07
2022-08-24T17:11:20.684Z,4.88
2022-08-24T17:13:50.367Z,4.40
2022-08-24T17:16:18.974Z,6.85
2022-08-24T17:18:45.953Z,2.55
2022-08-24T17:21:12.756Z,3.57
2022-08-24T17:23:41.107Z,5.55
2022-08-24T17:26:19.371Z,4.03
2022-08-24T17:28:49.482Z,3.20
2022-08-24T17:31:16.212Z,7.43
2022-08-24T17:33:42.910Z,3.50
2022-08-24T17:36:15.467Z,3.42
2022-08-24T17:38:55.105Z,4.82
2022-08-24T17:41:23.702Z,10.18
2022-08-24T17:43:50.941Z,4.90
2022-08-24T17:46:18.862Z,4.07
2022-08-24T17:48:46.807Z,4.95
2022-08-24T17:51:14.284Z,3.85
2022-08-24T17:53:41.402Z,5.00
2022-08-24T17:56:09.095Z,5.63
2022-08-24T17:58:58.966Z,5.03
2022-08-24T18:01:25.924Z,5.00
2022-08-24T18:03:52.764Z,3.17
2022-08-24T18:06:23.197Z,3.67
2022-08-24T18:08:51.255Z,4.97
2022-08-24T18:11:20.637Z,3.53
2022-08-24T18:13:49.347Z,6.75
2022-08-24T18:16:23.200Z,4.88
2022-08-24T18:18:51.789Z,4.03
2022-08-24T18:21:20.047Z,4.40
2022-08-24T18:23:48.344Z,3.10
2022-08-24T18:26:35.359Z,3.08
2022-08-24T18:29:14.535Z,3.75
2022-08-24T18:31:42.109Z,5.25
2022-08-24T18:34:15.310Z,5.82
2022-08-24T18:36:41.987Z,3.83
2022-08-24T18:39:08.650Z,3.25
2022-08-24T18:41:39.087Z,7.50
2022-08-24T18:44:07.562Z,4.20
2022-08-24T18:46:34.554Z,4.60
2022-08-24T18:49:01.912Z,4.37
2022-08-24T18:51:36.615Z,3.05
2022-08-24T18:54:19.200Z,5.07
2022-08-24T18:56:46.063Z,3.03
2022-08-24T18:59:15.623Z,6.55
2022-08-24T19:02:02.271Z,4.30
2022-08-24T19:04:32.878Z,5.40
2022-08-24T19:07:00.803Z,5.65
2022-08-24T19:09:32.065Z,5.50
2022-08-24T19:12:01.078Z,4.20
2022-08-24T19:14:27.878Z,2.90
2022-08-24T19:16:54.849Z,3.22
2022-08-24T19:19:22.131Z,5.82
2022-08-24T19:21:49.332Z,6.68
2022-08-24T19:24:18.548Z,3.72
2022-08-24T19:26:45.194Z,4.97
2022-08-24T19:29:11.903Z,8.27
2022-08-24T19:31:38.699Z,5.35
2022-08-24T19:34:06.053Z,4.38
2022-08-24T19:36:32.874Z,4.20
2022-08-24T19:38:59.636Z,7.07
2022-08-24T19:41:36.749Z,5.25
2022-08-24T19:44:27.779Z,5.25
2022-08-24T19:46:55.447Z,4.28
2022-08-24T19:49:22.596Z,3.92
2022-08-24T19:51:50.240Z,6.55
2022-08-24T19:54:17.167Z,5.45
2022-08-24T19:56:44.171Z,6.22
2022-08-24T19:59:39.935Z,7.32
2022-08-24T20:02:07.277Z,6.15
2022-08-24T20:04:33.951Z,7.50
2022-08-24T20:07:01.019Z,9.15
2022-08-24T20:09:28.793Z,5.93
2022-08-24T20:11:55.428Z,6.10
2022-08-24T20:14:22.112Z,6.57
2022-08-24T20:16:48.894Z,5.97
2022-08-24T20:19:15.598Z,7.55
2022-08-24T20:21:42.331Z,5.70
2022-08-24T20:24:10.374Z,7.47
2022-08-24T20:26:42.689Z,7.38
2022-08-24T20:29:10.521Z,8.70
2022-08-24T20:31:39.880Z,6.03
2022-08-24T20:34:07.224Z,6.90
2022-08-24T20:36:39.479Z,8.68
2022-08-24T20:39:10.763Z,10.55
2022-08-24T20:41:37.677Z,9.05
2022-08-24T20:44:04.859Z,7.25
2022-08-24T20:46:32.153Z,7.00
2022-08-24T20:48:59.403Z,8.32
2022-08-24T20:51:26.370Z,7.65
2022-08-24T20:53:53.901Z,14.63
2022-08-24T20:56:31.143Z,7.93
2022-08-24T20:59:01.020Z,9.15
2022-08-24T21:01:27.710Z,7.55
2022-08-24T21:03:54.412Z,8.82
2022-08-24T21:06:21.246Z,7.22
2022-08-24T21:08:50.596Z,7.30
2022-08-24T21:11:17.615Z,6.25
2022-08-24T21:13:44.303Z,9.57
2022-08-24T21:16:13.512Z,6.18
2022-08-24T21:18:40.683Z,6.10
2022-08-24T21:21:07.465Z,6.88
2022-08-24T21:23:34.308Z,10.10
2022-08-24T21:26:02.770Z,7.97
2022-08-24T21:28:30.478Z,7.75
2022-08-24T21:30:57.226Z,9.60
2022-08-24T21:33:59.355Z,7.93
2022-08-24T21:36:31.713Z,7.85
2022-08-24T21:38:59.476Z,7.40
2022-08-24T21:41:29.220Z,8.48
2022-08-24T21:43:56.226Z,7.22
2022-08-24T21:46:32.603Z,7.32
2022-08-24T21:49:00.391Z,8.48
2022-08-24T21:51:28.047Z,8.25
2022-08-24T21:53:56.650Z,5.70
2022-08-24T21:56:29.463Z,9.38
2022-08-24T21:58:56.094Z,7.18
2022-08-24T22:01:22.790Z,6.97
2022-08-24T22:03:49.596Z,5.55
2022-08-24T22:06:16.281Z,10.68
2022-08-24T22:08:43.649Z,9.70
2022-08-24T22:11:16.525Z,8.73
2022-08-24T22:13:43.339Z,9.15
2022-08-24T22:16:11.026Z,7.53
2022-08-24T22:18:38.334Z,7.03
2022-08-24T22:21:08.891Z,8.73
2022-08-24T22:23:35.997Z,7.35
2022-08-24T22:26:03.203Z,6.93
2022-08-24T22:28:30.110Z,7.93
2022-08-24T22:30:56.849Z,9.68
2022-08-24T22:33:24.490Z,6.40
2022-08-24T22:35:51.840Z,10.73
2022-08-24T22:38:20.031Z,7.47
2022-08-24T22:40:52.944Z,7.07
2022-08-24T22:43:23.205Z,9.20
2022-08-24T22:45:51.839Z,11.07
2022-08-24T22:48:18.480Z,11.13
2022-08-24T22:50:46.252Z,6.68
2022-08-24T22:53:13.616Z,9.93
2022-08-24T22:55:40.345Z,8.23
2022-08-24T22:58:07.043Z,9.35
2022-08-24T23:00:33.746Z,7.65
2022-08-24T23:03:00.471Z,6.45
2022-08-24T23:05:27.347Z,8.70
2022-08-24T23:07:53.992Z,7.15
2022-08-24T23:10:20.679Z,7.38
2022-08-24T23:12:47.331Z,8.45
2022-08-24T23:15:14.042Z,8.13
2022-08-24T23:17:42.661Z,6.63
2022-08-24T23:20:10.280Z,9.88
2022-08-24T23:22:39.647Z,8.77
2022-08-24T23:25:09.460Z,8.68
2022-08-24T23:27:38.450Z,11.48
2022-08-24T23:30:09.483Z,8.88
2022-08-24T23:32:36.194Z,10.15
2022-08-24T23:35:04.181Z,9.55
2022-08-24T23:37:30.916Z,8.90
2022-08-24T23:39:58.056Z,7.05
2022-08-24T23:42:24.767Z,8.18
2022-08-24T23:44:51.863Z,9.57
2022-08-24T23:47:18.519Z,12.13
2022-08-24T23:49:45.191Z,10.07
2022-08-24T23:52:27.192Z,11.10
2022-08-24T23:55:15.617Z,9.75
2022-08-24T23:57:45.822Z,8.20
